sensor_id;sensor_type;location;lat;lon;timestamp;pressure;altitude;pressure_sealevel;temperature;humidity
56518;BME280;42419;48.760;2.322;2023-07-29T00:02:09;100233.38;;;23.85;nan
56518;BME280;42419;48.760;2.322;2023-07-29T00:04:34;100211.56;;;23.76;nan
56518;BME280;42419;48.760;2.322;2023-07-29T00:06:59;100222.69;;;23.84;nan
56518;BME280;42419;48.760;2.322;2023-07-29T00:09:25;100210.81;;;23.73;nan
56518;BME280;42419;48.760;2.322;2023-07-29T00:11:50;100227.31;;;23.82;nan
56518;BME280;42419;48.760;2.322;2023-07-29T00:14:15;100221.94;;;23.82;nan
56518;BME280;42419;48.760;2.322;2023-07-29T00:16:40;100231.03;;;23.79;nan
56518;BME280;42419;48.760;2.322;2023-07-29T00:19:07;100223.84;;;23.80;nan
56518;BME280;42419;48.760;2.322;2023-07-29T00:21:32;100215.88;;;23.78;nan
56518;BME280;42419;48.760;2.322;2023-07-29T00:23:57;100210.59;;;23.77;nan
56518;BME280;42419;48.760;2.322;2023-07-29T00:26:23;100188.72;;;23.68;nan
56518;BME280;42419;48.760;2.322;2023-07-29T00:28:51;100210.50;;;23.78;nan
56518;BME280;42419;48.760;2.322;2023-07-29T00:31:16;100218.56;;;23.78;nan
56518;BME280;42419;48.760;2.322;2023-07-29T00:33:41;100207.91;;;23.77;nan
56518;BME280;42419;48.760;2.322;2023-07-29T00:36:07;100208.78;;;23.77;nan
56518;BME280;42419;48.760;2.322;2023-07-29T00:38:32;100219.63;;;23.76;nan
56518;BME280;42419;48.760;2.322;2023-07-29T00:40:57;100217.78;;;23.76;nan
56518;BME280;42419;48.760;2.322;2023-07-29T00:43:24;100225.94;;;23.74;nan
56518;BME280;42419;48.760;2.322;2023-07-29T00:45:52;100198.13;;;23.61;nan
56518;BME280;42419;48.760;2.322;2023-07-29T00:48:17;100219.03;;;23.70;nan
56518;BME280;42419;48.760;2.322;2023-07-29T00:50:43;100210.69;;;23.61;nan
56518;BME280;42419;48.760;2.322;2023-07-29T00:53:09;100226.22;;;23.70;nan
56518;BME280;42419;48.760;2.322;2023-07-29T00:55:34;100211.25;;;23.66;nan
56518;BME280;42419;48.760;2.322;2023-07-29T00:57:59;100214.94;;;23.65;nan
56518;BME280;42419;48.760;2.322;2023-07-29T01:00:25;100159.25;;;23.24;nan
56518;BME280;42419;48.760;2.322;2023-07-29T01:02:50;100221.44;;;23.61;nan
56518;BME280;42419;48.760;2.322;2023-07-29T01:05:17;100232.59;;;23.69;nan
56518;BME280;42419;48.760;2.322;2023-07-29T01:07:59;100228.25;;;23.66;nan
56518;BME280;42419;48.760;2.322;2023-07-29T01:13:37;100234.69;;;23.64;nan
56518;BME280;42419;48.760;2.322;2023-07-29T01:16:23;100221.34;;;23.62;nan
56518;BME280;42419;48.760;2.322;2023-07-29T01:18:52;100214.25;;;23.61;nan
56518;BME280;42419;48.760;2.322;2023-07-29T01:21:19;100203.59;;;23.60;nan
56518;BME280;42419;48.760;2.322;2023-07-29T01:23:46;100185.66;;;23.60;nan
56518;BME280;42419;48.760;2.322;2023-07-29T01:26:11;100178.56;;;23.59;nan
56518;BME280;42419;48.760;2.322;2023-07-29T01:28:36;100193.81;;;23.59;nan
56518;BME280;42419;48.760;2.322;2023-07-29T01:31:23;100227.09;;;23.56;nan
56518;BME280;42419;48.760;2.322;2023-07-29T01:34:05;100227.00;;;23.58;nan
56518;BME280;42419;48.760;2.322;2023-07-29T01:36:33;100214.44;;;23.58;nan
56518;BME280;42419;48.760;2.322;2023-07-29T01:39:01;100196.19;;;23.49;nan
56518;BME280;42419;48.760;2.322;2023-07-29T01:41:27;100226.25;;;23.56;nan
56518;BME280;42419;48.760;2.322;2023-07-29T01:43:53;100201.28;;;23.54;nan
56518;BME280;42419;48.760;2.322;2023-07-29T01:46:18;100194.31;;;23.51;nan
56518;BME280;42419;48.760;2.322;2023-07-29T01:48:44;100204.94;;;23.53;nan
56518;BME280;42419;48.760;2.322;2023-07-29T01:51:11;100206.88;;;23.51;nan
56518;BME280;42419;48.760;2.322;2023-07-29T01:53:37;100206.00;;;23.50;nan
56518;BME280;42419;48.760;2.322;2023-07-29T01:56:02;100232.88;;;23.50;nan
56518;BME280;42419;48.760;2.322;2023-07-29T01:58:27;100232.88;;;23.50;nan
56518;BME280;42419;48.760;2.322;2023-07-29T02:00:53;100245.34;;;23.51;nan
56518;BME280;42419;48.760;2.322;2023-07-29T02:03:18;100227.28;;;23.39;nan
56518;BME280;42419;48.760;2.322;2023-07-29T02:05:43;100239.19;;;23.49;nan
56518;BME280;42419;48.760;2.322;2023-07-29T02:08:09;100232.09;;;23.48;nan
56518;BME280;42419;48.760;2.322;2023-07-29T02:10:35;100179.03;;;23.38;nan
56518;BME280;42419;48.760;2.322;2023-07-29T02:13:00;100178.16;;;23.37;nan
56518;BME280;42419;48.760;2.322;2023-07-29T02:15:25;100169.31;;;23.35;nan
56518;BME280;42419;48.760;2.322;2023-07-29T02:17:51;100190.66;;;23.38;nan
56518;BME280;42419;48.760;2.322;2023-07-29T02:20:17;100213.84;;;23.39;nan
56518;BME280;42419;48.760;2.322;2023-07-29T02:22:42;100200.97;;;23.30;nan
56518;BME280;42419;48.760;2.322;2023-07-29T02:25:08;100210.13;;;23.42;nan
56518;BME280;42419;48.760;2.322;2023-07-29T02:27:33;100204.84;;;23.40;nan
56518;BME280;42419;48.760;2.322;2023-07-29T02:29:58;100206.56;;;23.41;nan
56518;BME280;42419;48.760;2.322;2023-07-29T02:32:24;100206.78;;;23.38;nan
56518;BME280;42419;48.760;2.322;2023-07-29T02:34:49;100221.16;;;23.37;nan
56518;BME280;42419;48.760;2.322;2023-07-29T02:37:14;100228.25;;;23.38;nan
56518;BME280;42419;48.760;2.322;2023-07-29T02:39:40;100224.72;;;23.38;nan
56518;BME280;42419;48.760;2.322;2023-07-29T02:42:05;100222.88;;;23.38;nan
56518;BME280;42419;48.760;2.322;2023-07-29T02:44:30;100199.34;;;23.27;nan
56518;BME280;42419;48.760;2.322;2023-07-29T02:46:56;100209.63;;;23.35;nan
56518;BME280;42419;48.760;2.322;2023-07-29T02:49:22;100213.38;;;23.33;nan
56518;BME280;42419;48.760;2.322;2023-07-29T02:51:48;100219.63;;;23.33;nan
56518;BME280;42419;48.760;2.322;2023-07-29T02:54:13;100218.75;;;23.33;nan
56518;BME280;42419;48.760;2.322;2023-07-29T02:56:38;100221.50;;;23.31;nan
56518;BME280;42419;48.760;2.322;2023-07-29T02:59:04;100214.41;;;23.30;nan
56518;BME280;42419;48.760;2.322;2023-07-29T03:01:30;100210.78;;;23.31;nan
56518;BME280;42419;48.760;2.322;2023-07-29T03:03:55;100209.03;;;23.30;nan
56518;BME280;42419;48.760;2.322;2023-07-29T03:06:21;100210.84;;;23.29;nan
56518;BME280;42419;48.760;2.322;2023-07-29T03:08:46;100219.91;;;23.28;nan
56518;BME280;42419;48.760;2.322;2023-07-29T03:11:16;100227.97;;;23.28;nan
56518;BME280;42419;48.760;2.322;2023-07-29T03:13:42;100238.78;;;23.27;nan
56518;BME280;42419;48.760;2.322;2023-07-29T03:16:12;100248.75;;;23.25;nan
56518;BME280;42419;48.760;2.322;2023-07-29T03:18:39;100245.97;;;23.26;nan
56518;BME280;42419;48.760;2.322;2023-07-29T03:21:04;100244.34;;;23.24;nan
56518;BME280;42419;48.760;2.322;2023-07-29T03:23:30;100248.00;;;23.23;nan
56518;BME280;42419;48.760;2.322;2023-07-29T03:25:57;100253.38;;;23.23;nan
56518;BME280;42419;48.760;2.322;2023-07-29T03:28:28;100260.63;;;23.21;nan
56518;BME280;42419;48.760;2.322;2023-07-29T03:30:56;100251.00;;;23.17;nan
56518;BME280;42419;48.760;2.322;2023-07-29T03:33:23;100253.44;;;23.21;nan
56518;BME280;42419;48.760;2.322;2023-07-29T03:35:49;100248.06;;;23.21;nan
56518;BME280;42419;48.760;2.322;2023-07-29T03:38:15;100251.63;;;23.22;nan
56518;BME280;42419;48.760;2.322;2023-07-29T03:40:41;100249.88;;;23.21;nan
56518;BME280;42419;48.760;2.322;2023-07-29T03:43:07;100228.16;;;23.10;nan
56518;BME280;42419;48.760;2.322;2023-07-29T03:45:33;100257.25;;;23.17;nan
56518;BME280;42419;48.760;2.322;2023-07-29T03:47:58;100246.56;;;23.16;nan
56518;BME280;42419;48.760;2.322;2023-07-29T03:50:24;100251.00;;;23.17;nan
56518;BME280;42419;48.760;2.322;2023-07-29T03:52:49;100242.94;;;23.17;nan
56518;BME280;42419;48.760;2.322;2023-07-29T03:55:15;100242.94;;;23.17;nan
56518;BME280;42419;48.760;2.322;2023-07-29T03:57:40;100240.38;;;23.15;nan
56518;BME280;42419;48.760;2.322;2023-07-29T04:00:06;100240.38;;;23.15;nan
56518;BME280;42419;48.760;2.322;2023-07-29T04:02:31;100250.25;;;23.15;nan
56518;BME280;42419;48.760;2.322;2023-07-29T04:04:57;100235.63;;;23.05;nan
56518;BME280;42419;48.760;2.322;2023-07-29T04:07:22;100252.94;;;23.15;nan
56518;BME280;42419;48.760;2.322;2023-07-29T04:09:47;100260.19;;;23.13;nan
56518;BME280;42419;48.760;2.322;2023-07-29T04:12:14;100260.19;;;23.13;nan
56518;BME280;42419;48.760;2.322;2023-07-29T04:14:39;100257.50;;;23.13;nan
56518;BME280;42419;48.760;2.322;2023-07-29T04:17:05;100261.94;;;23.14;nan
56518;BME280;42419;48.760;2.322;2023-07-29T04:19:30;100270.94;;;23.13;nan
56518;BME280;42419;48.760;2.322;2023-07-29T04:21:55;100262.88;;;23.13;nan
56518;BME280;42419;48.760;2.322;2023-07-29T04:24:21;100270.94;;;23.13;nan
56518;BME280;42419;48.760;2.322;2023-07-29T04:26:48;100282.63;;;23.12;nan
56518;BME280;42419;48.760;2.322;2023-07-29T04:29:13;100277.19;;;23.13;nan
56518;BME280;42419;48.760;2.322;2023-07-29T04:31:39;100273.63;;;23.13;nan
56518;BME280;42419;48.760;2.322;2023-07-29T04:34:04;100276.31;;;23.13;nan
56518;BME280;42419;48.760;2.322;2023-07-29T04:36:30;100264.81;;;23.11;nan
56518;BME280;42419;48.760;2.322;2023-07-29T04:38:55;100263.84;;;23.12;nan
56518;BME280;42419;48.760;2.322;2023-07-29T04:41:20;100250.78;;;23.06;nan
56518;BME280;42419;48.760;2.322;2023-07-29T04:43:46;100262.88;;;23.13;nan
56518;BME280;42419;48.760;2.322;2023-07-29T04:46:11;100262.03;;;23.12;nan
56518;BME280;42419;48.760;2.322;2023-07-29T04:48:36;100265.69;;;23.11;nan
56518;BME280;42419;48.760;2.322;2023-07-29T04:51:02;100265.56;;;23.13;nan
56518;BME280;42419;48.760;2.322;2023-07-29T04:53:27;100260.19;;;23.13;nan
56518;BME280;42419;48.760;2.322;2023-07-29T04:55:52;100261.25;;;23.10;nan
56518;BME280;42419;48.760;2.322;2023-07-29T04:58:18;100263.16;;;23.08;nan
56518;BME280;42419;48.760;2.322;2023-07-29T05:00:43;100246.91;;;22.96;nan
56518;BME280;42419;48.760;2.322;2023-07-29T05:03:08;100270.19;;;23.11;nan
56518;BME280;42419;48.760;2.322;2023-07-29T05:05:33;100263.28;;;23.07;nan
56518;BME280;42419;48.760;2.322;2023-07-29T05:07:59;100269.22;;;23.12;nan
56518;BME280;42419;48.760;2.322;2023-07-29T05:10:24;100270.25;;;23.09;nan
56518;BME280;42419;48.760;2.322;2023-07-29T05:12:50;100264.69;;;23.12;nan
56518;BME280;42419;48.760;2.322;2023-07-29T05:15:15;100281.69;;;23.13;nan
56518;BME280;42419;48.760;2.322;2023-07-29T05:17:40;100270.06;;;23.12;nan
56518;BME280;42419;48.760;2.322;2023-07-29T05:20:06;100273.63;;;23.13;nan
56518;BME280;42419;48.760;2.322;2023-07-29T05:22:32;100271.81;;;23.13;nan
56518;BME280;42419;48.760;2.322;2023-07-29T05:24:57;100279.88;;;23.13;nan
56518;BME280;42419;48.760;2.322;2023-07-29T05:27:22;100272.00;;;23.10;nan
56518;BME280;42419;48.760;2.322;2023-07-29T05:29:47;100277.19;;;23.13;nan
56518;BME280;42419;48.760;2.322;2023-07-29T05:32:13;100274.56;;;23.12;nan
56518;BME280;42419;48.760;2.322;2023-07-29T05:34:38;100274.97;;;23.06;nan
56518;BME280;42419;48.760;2.322;2023-07-29T05:37:04;100258.25;;;23.01;nan
56518;BME280;42419;48.760;2.322;2023-07-29T05:39:29;100285.31;;;23.12;nan
56518;BME280;42419;48.760;2.322;2023-07-29T05:41:55;100277.25;;;23.12;nan
56518;BME280;42419;48.760;2.322;2023-07-29T05:44:20;100287.06;;;23.13;nan
56518;BME280;42419;48.760;2.322;2023-07-29T05:46:45;100288.00;;;23.12;nan
56518;BME280;42419;48.760;2.322;2023-07-29T05:49:11;100292.44;;;23.13;nan
56518;BME280;42419;48.760;2.322;2023-07-29T05:51:37;100298.66;;;23.13;nan
56518;BME280;42419;48.760;2.322;2023-07-29T05:54:02;100300.47;;;23.13;nan
56518;BME280;42419;48.760;2.322;2023-07-29T05:56:27;100297.59;;;23.16;nan
56518;BME280;42419;48.760;2.322;2023-07-29T05:58:52;100287.16;;;23.11;nan
56518;BME280;42419;48.760;2.322;2023-07-29T06:01:18;100280.66;;;23.15;nan
56518;BME280;42419;48.760;2.322;2023-07-29T06:03:46;100273.81;;;23.10;nan
56518;BME280;42419;48.760;2.322;2023-07-29T06:06:12;100274.56;;;23.12;nan
56518;BME280;42419;48.760;2.322;2023-07-29T06:08:37;100252.22;;;22.97;nan
56518;BME280;42419;48.760;2.322;2023-07-29T06:11:02;100272.00;;;23.10;nan
56518;BME280;42419;48.760;2.322;2023-07-29T06:13:28;100284.28;;;23.14;nan
56518;BME280;42419;48.760;2.322;2023-07-29T06:15:54;100303.84;;;23.16;nan
56518;BME280;42419;48.760;2.322;2023-07-29T06:18:19;100313.91;;;23.13;nan
56518;BME280;42419;48.760;2.322;2023-07-29T06:20:44;100283.19;;;23.03;nan
56518;BME280;42419;48.760;2.322;2023-07-29T06:23:10;100322.50;;;23.19;nan
56518;BME280;42419;48.760;2.322;2023-07-29T06:25:35;100312.28;;;23.10;nan
56518;BME280;42419;48.760;2.322;2023-07-29T06:28:00;100323.44;;;23.18;nan
56518;BME280;42419;48.760;2.322;2023-07-29T06:30:25;100329.69;;;23.19;nan
56518;BME280;42419;48.760;2.322;2023-07-29T06:32:51;100321.38;;;23.08;nan
56518;BME280;42419;48.760;2.322;2023-07-29T06:35:16;100335.22;;;23.16;nan
56518;BME280;42419;48.760;2.322;2023-07-29T06:37:41;100311.22;;;23.13;nan
56518;BME280;42419;48.760;2.322;2023-07-29T06:40:07;100314.69;;;23.15;nan
56518;BME280;42419;48.760;2.322;2023-07-29T06:42:33;100327.16;;;23.16;nan
56518;BME280;42419;48.760;2.322;2023-07-29T06:44:58;100294.91;;;23.02;nan
56518;BME280;42419;48.760;2.322;2023-07-29T06:47:23;100336.19;;;23.15;nan
56518;BME280;42419;48.760;2.322;2023-07-29T06:49:48;100336.25;;;23.13;nan
56518;BME280;42419;48.760;2.322;2023-07-29T06:52:14;100314.19;;;23.08;nan
56518;BME280;42419;48.760;2.322;2023-07-29T06:54:39;100329.16;;;23.12;nan
56518;BME280;42419;48.760;2.322;2023-07-29T06:57:05;100338.09;;;23.13;nan
56518;BME280;42419;48.760;2.322;2023-07-29T06:59:30;100348.81;;;23.13;nan
56518;BME280;42419;48.760;2.322;2023-07-29T07:01:55;100346.13;;;23.13;nan
56518;BME280;42419;48.760;2.322;2023-07-29T07:04:21;100351.69;;;23.10;nan
56518;BME280;42419;48.760;2.322;2023-07-29T07:06:46;100355.84;;;23.15;nan
56518;BME280;42419;48.760;2.322;2023-07-29T07:09:11;100266.63;;;22.65;nan
56518;BME280;42419;48.760;2.322;2023-07-29T07:11:37;100352.03;;;23.19;nan
56518;BME280;42419;48.760;2.322;2023-07-29T07:14:02;100356.53;;;23.19;nan
56518;BME280;42419;48.760;2.322;2023-07-29T07:16:27;100348.47;;;23.19;nan
56518;BME280;42419;48.760;2.322;2023-07-29T07:18:55;100352.97;;;23.18;nan
56518;BME280;42419;48.760;2.322;2023-07-29T07:21:20;100371.63;;;23.21;nan
56518;BME280;42419;48.760;2.322;2023-07-29T07:23:46;100374.38;;;23.20;nan
56518;BME280;42419;48.760;2.322;2023-07-29T07:26:11;100362.78;;;23.19;nan
56518;BME280;42419;48.760;2.322;2023-07-29T07:28:36;100304.28;;;22.79;nan
56518;BME280;42419;48.760;2.322;2023-07-29T07:31:02;100358.53;;;23.15;nan
56518;BME280;42419;48.760;2.322;2023-07-29T07:33:27;100364.75;;;23.16;nan
56518;BME280;42419;48.760;2.322;2023-07-29T07:35:52;100368.41;;;23.15;nan
56518;BME280;42419;48.760;2.322;2023-07-29T07:38:18;100367.44;;;23.16;nan
56518;BME280;42419;48.760;2.322;2023-07-29T07:40:57;100362.53;;;23.08;nan
56518;BME280;42419;48.760;2.322;2023-07-29T07:43:23;100353.97;;;23.02;nan
56518;BME280;42419;48.760;2.322;2023-07-29T07:45:49;100372.25;;;23.11;nan
56518;BME280;42419;48.760;2.322;2023-07-29T07:48:14;100379.31;;;23.12;nan
56518;BME280;42419;48.760;2.322;2023-07-29T07:50:41;100368.75;;;23.09;nan
56518;BME280;42419;48.760;2.322;2023-07-29T07:53:07;100360.50;;;23.12;nan
56518;BME280;42419;48.760;2.322;2023-07-29T07:55:32;100369.38;;;23.14;nan
56518;BME280;42419;48.760;2.322;2023-07-29T07:57:57;100367.63;;;23.13;nan
56518;BME280;42419;48.760;2.322;2023-07-29T08:00:22;100382.59;;;23.17;nan
56518;BME280;42419;48.760;2.322;2023-07-29T08:02:48;100357.41;;;23.04;nan
56518;BME280;42419;48.760;2.322;2023-07-29T08:05:13;100369.19;;;23.17;nan
56518;BME280;42419;48.760;2.322;2023-07-29T08:07:38;100352.56;;;23.10;nan
56518;BME280;42419;48.760;2.322;2023-07-29T08:10:04;100371.84;;;23.17;nan
56518;BME280;42419;48.760;2.322;2023-07-29T08:12:30;100364.94;;;23.13;nan
56518;BME280;42419;48.760;2.322;2023-07-29T08:14:55;100365.38;;;23.21;nan
56518;BME280;42419;48.760;2.322;2023-07-29T08:17:20;100365.38;;;23.21;nan
56518;BME280;42419;48.760;2.322;2023-07-29T08:19:46;100307.19;;;22.90;nan
56518;BME280;42419;48.760;2.322;2023-07-29T08:22:11;100372.31;;;23.25;nan
56518;BME280;42419;48.760;2.322;2023-07-29T08:24:36;100367.03;;;23.23;nan
56518;BME280;42419;48.760;2.322;2023-07-29T08:27:02;100367.72;;;23.27;nan
56518;BME280;42419;48.760;2.322;2023-07-29T08:29:27;100365.03;;;23.27;nan
56518;BME280;42419;48.760;2.322;2023-07-29T08:31:52;100376.66;;;23.27;nan
56518;BME280;42419;48.760;2.322;2023-07-29T08:34:17;100372.03;;;23.29;nan
56518;BME280;42419;48.760;2.322;2023-07-29T08:36:43;100377.31;;;23.31;nan
56518;BME280;42419;48.760;2.322;2023-07-29T08:39:08;100374.72;;;23.29;nan
56518;BME280;42419;48.760;2.322;2023-07-29T08:41:54;100372.03;;;23.29;nan
56518;BME280;42419;48.760;2.322;2023-07-29T08:44:23;100366.59;;;23.31;nan
56518;BME280;42419;48.760;2.322;2023-07-29T08:46:49;100361.03;;;23.34;nan
56518;BME280;42419;48.760;2.322;2023-07-29T08:49:15;100346.16;;;23.28;nan
56518;BME280;42419;48.760;2.322;2023-07-29T08:51:45;100352.97;;;23.34;nan
56518;BME280;42419;48.760;2.322;2023-07-29T08:54:12;100352.19;;;23.32;nan
56518;BME280;42419;48.760;2.322;2023-07-29T08:56:37;100358.06;;;23.39;nan
56518;BME280;42419;48.760;2.322;2023-07-29T08:59:03;100345.88;;;23.33;nan
56518;BME280;42419;48.760;2.322;2023-07-29T09:01:30;100350.72;;;23.42;nan
56518;BME280;42419;48.760;2.322;2023-07-29T09:03:56;100355.09;;;23.43;nan
56518;BME280;42419;48.760;2.322;2023-07-29T09:06:21;100346.09;;;23.44;nan
56518;BME280;42419;48.760;2.322;2023-07-29T09:08:49;100350.72;;;23.42;nan
56518;BME280;42419;48.760;2.322;2023-07-29T09:11:16;100341.84;;;23.40;nan
56518;BME280;42419;48.760;2.322;2023-07-29T09:13:42;100301.44;;;23.12;nan
56518;BME280;42419;48.760;2.322;2023-07-29T09:16:08;100338.41;;;23.38;nan
56518;BME280;42419;48.760;2.322;2023-07-29T09:18:34;100348.97;;;23.41;nan
56518;BME280;42419;48.760;2.322;2023-07-29T09:20:59;100342.66;;;23.42;nan
56518;BME280;42419;48.760;2.322;2023-07-29T09:23:26;100344.00;;;23.49;nan
56518;BME280;42419;48.760;2.322;2023-07-29T09:26:00;100332.47;;;23.47;nan
56518;BME280;42419;48.760;2.322;2023-07-29T09:28:25;100334.97;;;23.50;nan
56518;BME280;42419;48.760;2.322;2023-07-29T09:30:52;100334.19;;;23.48;nan
56518;BME280;42419;48.760;2.322;2023-07-29T09:33:18;100344.50;;;23.56;nan
56518;BME280;42419;48.760;2.322;2023-07-29T09:35:44;100333.06;;;23.52;nan
56518;BME280;42419;48.760;2.322;2023-07-29T09:38:14;100344.31;;;23.59;nan
56518;BME280;42419;48.760;2.322;2023-07-29T09:40:41;100329.34;;;23.55;nan
56518;BME280;42419;48.760;2.322;2023-07-29T09:43:09;100327.88;;;23.49;nan
56518;BME280;42419;48.760;2.322;2023-07-29T09:45:36;100339.59;;;23.62;nan
56518;BME280;42419;48.760;2.322;2023-07-29T09:48:03;100335.03;;;23.64;nan
56518;BME280;42419;48.760;2.322;2023-07-29T09:50:30;100329.66;;;23.64;nan
56518;BME280;42419;48.760;2.322;2023-07-29T09:52:56;100342.97;;;23.66;nan
56518;BME280;42419;48.760;2.322;2023-07-29T09:55:25;100336.72;;;23.65;nan
56518;BME280;42419;48.760;2.322;2023-07-29T09:57:59;100342.09;;;23.65;nan
56518;BME280;42419;48.760;2.322;2023-07-29T10:00:31;100340.41;;;23.64;nan
56518;BME280;42419;48.760;2.322;2023-07-29T10:02:57;100333.19;;;23.65;nan
56518;BME280;42419;48.760;2.322;2023-07-29T10:05:27;100344.72;;;23.67;nan
56518;BME280;42419;48.760;2.322;2023-07-29T10:07:54;100342.88;;;23.67;nan
56518;BME280;42419;48.760;2.322;2023-07-29T10:10:22;100351.81;;;23.68;nan
56518;BME280;42419;48.760;2.322;2023-07-29T10:12:48;100312.63;;;23.50;nan
56518;BME280;42419;48.760;2.322;2023-07-29T10:15:14;100341.06;;;23.68;nan
56518;BME280;42419;48.760;2.322;2023-07-29T10:17:40;100346.44;;;23.68;nan
56518;BME280;42419;48.760;2.322;2023-07-29T10:20:09;100362.47;;;23.69;nan
56518;BME280;42419;48.760;2.322;2023-07-29T10:22:40;100348.94;;;23.71;nan
56518;BME280;42419;48.760;2.322;2023-07-29T10:25:27;100347.31;;;23.68;nan
56518;BME280;42419;48.760;2.322;2023-07-29T10:27:57;100344.50;;;23.70;nan
56518;BME280;42419;48.760;2.322;2023-07-29T10:30:28;100329.06;;;23.59;nan
56518;BME280;42419;48.760;2.322;2023-07-29T10:32:54;100340.56;;;23.61;nan
56518;BME280;42419;48.760;2.322;2023-07-29T10:35:22;100352.78;;;23.67;nan
56518;BME280;42419;48.760;2.322;2023-07-29T10:37:48;100350.94;;;23.67;nan
56518;BME280;42419;48.760;2.322;2023-07-29T10:40:16;100338.84;;;23.60;nan
56518;BME280;42419;48.760;2.322;2023-07-29T10:43:03;100313.75;;;23.46;nan
56518;BME280;42419;48.760;2.322;2023-07-29T10:45:41;100352.69;;;23.68;nan
56518;BME280;42419;48.760;2.322;2023-07-29T10:48:10;100348.19;;;23.69;nan
56518;BME280;42419;48.760;2.322;2023-07-29T10:50:37;100347.97;;;23.72;nan
56518;BME280;42419;48.760;2.322;2023-07-29T10:53:04;100343.56;;;23.71;nan
56518;BME280;42419;48.760;2.322;2023-07-29T10:55:32;100345.38;;;23.70;nan
56518;BME280;42419;48.760;2.322;2023-07-29T10:58:24;100331.47;;;23.64;nan
56518;BME280;42419;48.760;2.322;2023-07-29T11:00:49;100341.66;;;23.73;nan
56518;BME280;42419;48.760;2.322;2023-07-29T11:03:15;100332.72;;;23.72;nan
56518;BME280;42419;48.760;2.322;2023-07-29T11:05:44;100339.84;;;23.73;nan
56518;BME280;42419;48.760;2.322;2023-07-29T11:08:17;100337.16;;;23.73;nan
56518;BME280;42419;48.760;2.322;2023-07-29T11:10:43;100336.88;;;23.78;nan
56518;BME280;42419;48.760;2.322;2023-07-29T11:13:10;100327.06;;;23.77;nan
56518;BME280;42419;48.760;2.322;2023-07-29T11:15:38;100333.03;;;23.82;nan
56518;BME280;42419;48.760;2.322;2023-07-29T11:18:05;100332.03;;;23.83;nan
56518;BME280;42419;48.760;2.322;2023-07-29T11:20:33;100308.69;;;23.69;nan
56518;BME280;42419;48.760;2.322;2023-07-29T11:23:00;100329.28;;;23.85;nan
56518;BME280;42419;48.760;2.322;2023-07-29T11:25:27;100330.97;;;23.87;nan
56518;BME280;42419;48.760;2.322;2023-07-29T11:27:58;100311.59;;;23.81;nan
56518;BME280;42419;48.760;2.322;2023-07-29T11:30:24;100313.09;;;23.86;nan
56518;BME280;42419;48.760;2.322;2023-07-29T11:32:53;100324.31;;;23.93;nan
56518;BME280;42419;48.760;2.322;2023-07-29T11:35:18;100324.22;;;23.94;nan
56518;BME280;42419;48.760;2.322;2023-07-29T11:37:46;100317.91;;;23.95;nan
56518;BME280;42419;48.760;2.322;2023-07-29T11:40:16;100301.38;;;23.87;nan
56518;BME280;42419;48.760;2.322;2023-07-29T11:42:42;100305.31;;;23.96;nan
56518;BME280;42419;48.760;2.322;2023-07-29T11:45:08;100308.56;;;24.01;nan
56518;BME280;42419;48.760;2.322;2023-07-29T11:47:35;100319.31;;;24.01;nan
56518;BME280;42419;48.760;2.322;2023-07-29T11:50:05;100306.84;;;24.00;nan
56518;BME280;42419;48.760;2.322;2023-07-29T11:52:32;100306.84;;;24.00;nan
56518;BME280;42419;48.760;2.322;2023-07-29T11:55:00;100305.97;;;23.99;nan
56518;BME280;42419;48.760;2.322;2023-07-29T11:57:25;100303.19;;;24.01;nan
56518;BME280;42419;48.760;2.322;2023-07-29T11:59:51;100295.97;;;24.01;nan
56518;BME280;42419;48.760;2.322;2023-07-29T12:02:17;100297.78;;;24.01;nan
56518;BME280;42419;48.760;2.322;2023-07-29T12:04:46;100288.78;;;24.02;nan
56518;BME280;42419;48.760;2.322;2023-07-29T12:07:13;100282.53;;;24.01;nan
56518;BME280;42419;48.760;2.322;2023-07-29T12:09:40;100295.09;;;24.01;nan
56518;BME280;42419;48.760;2.322;2023-07-29T12:12:07;100303.47;;;23.96;nan
56518;BME280;42419;48.760;2.322;2023-07-29T12:14:33;100312.97;;;24.02;nan
56518;BME280;42419;48.760;2.322;2023-07-29T12:17:03;100295.97;;;24.01;nan
56518;BME280;42419;48.760;2.322;2023-07-29T12:19:36;100299.66;;;24.00;nan
56518;BME280;42419;48.760;2.322;2023-07-29T12:22:04;100292.41;;;24.01;nan
56518;BME280;42419;48.760;2.322;2023-07-29T12:24:30;100266.50;;;23.86;nan
56518;BME280;42419;48.760;2.322;2023-07-29T12:26:56;100297.03;;;23.99;nan
56518;BME280;42419;48.760;2.322;2023-07-29T12:29:21;100304.03;;;24.01;nan
56518;BME280;42419;48.760;2.322;2023-07-29T12:31:47;100293.19;;;24.03;nan
56518;BME280;42419;48.760;2.322;2023-07-29T12:34:19;100284.75;;;24.09;nan
56518;BME280;42419;48.760;2.322;2023-07-29T12:36:49;100272.25;;;24.08;nan
56518;BME280;42419;48.760;2.322;2023-07-29T12:39:23;100277.91;;;24.17;nan
56518;BME280;42419;48.760;2.322;2023-07-29T12:41:50;100273.41;;;24.18;nan
56518;BME280;42419;48.760;2.322;2023-07-29T12:44:16;100263.13;;;24.10;nan
56518;BME280;42419;48.760;2.322;2023-07-29T12:46:41;100265.44;;;24.16;nan
56518;BME280;42419;48.760;2.322;2023-07-29T12:49:07;100244.78;;;24.03;nan
56518;BME280;42419;48.760;2.322;2023-07-29T12:51:33;100264.34;;;24.19;nan
56518;BME280;42419;48.760;2.322;2023-07-29T12:53:58;100258.13;;;24.19;nan
56518;BME280;42419;48.760;2.322;2023-07-29T12:56:23;100275.03;;;24.21;nan
56518;BME280;42419;48.760;2.322;2023-07-29T12:58:49;100237.88;;;24.13;nan
56518;BME280;42419;48.760;2.322;2023-07-29T13:01:15;100250.72;;;24.22;nan
56518;BME280;42419;48.760;2.322;2023-07-29T13:03:44;100237.00;;;24.12;nan
56518;BME280;42419;48.760;2.322;2023-07-29T13:06:09;100252.44;;;24.23;nan
56518;BME280;42419;48.760;2.322;2023-07-29T13:08:34;100252.25;;;24.26;nan
56518;BME280;42419;48.760;2.322;2023-07-29T13:10:59;100229.50;;;24.17;nan